Time;durP1;ratioP1;P1;durP2;ratioP2;P2;SDS_P1;SDS_P2;PMS_P1;PMS_P2;Temp;Humidity;BMP_temperature;BMP_pressure;BME280_temperature;BME280_humidity;BME280_pressure;Samples;Min_cycle;Max_cycle;Signal;HPM_P1;HPM_P2
2023/03/14 00:01:26;;;;;;;23.17;4.80;;;;;;;;;;5090622;28;20104;-64
2023/03/14 00:03:52;;;;;;;20.30;3.88;;;;;;;;;;5091027;28;20088;-64
2023/03/14 00:06:18;;;;;;;25.17;5.20;;;;;;;;;;5090382;28;20394;-64
2023/03/14 00:08:45;;;;;;;21.85;4.18;;;;;;;;;;5090821;28;20517;-64
2023/03/14 00:11:12;;;;;;;20.73;3.90;;;;;;;;;;5090959;28;20075;-64
2023/03/14 00:13:39;;;;;;;27.33;5.00;;;;;;;;;;5090400;28;20036;-64
2023/03/14 00:16:06;;;;;;;23.00;4.40;;;;;;;;;;5090888;28;20032;-64
2023/03/14 00:18:32;;;;;;;24.15;4.43;;;;;;;;;;5090801;28;20043;-64
2023/03/14 00:20:59;;;;;;;21.20;4.32;;;;;;;;;;5089784;28;20044;-64
2023/03/14 00:23:25;;;;;;;20.58;4.00;;;;;;;;;;5090921;28;20422;-64
2023/03/14 00:25:51;;;;;;;21.85;3.80;;;;;;;;;;5082649;28;20115;-64
2023/03/14 00:28:17;;;;;;;24.27;5.00;;;;;;;;;;5070130;28;20056;-64
2023/03/14 00:30:43;;;;;;;25.98;4.65;;;;;;;;;;5070368;28;20033;-64
2023/03/14 00:33:09;;;;;;;26.48;4.30;;;;;;;;;;5071112;28;20049;-64
2023/03/14 00:35:35;;;;;;;19.25;3.50;;;;;;;;;;5073526;28;20115;-64
2023/03/14 00:38:01;;;;;;;17.25;3.47;;;;;;;;;;5074350;28;20044;-64
2023/03/14 00:40:27;;;;;;;28.48;5.30;;;;;;;;;;5073980;28;20093;-64
2023/03/14 00:42:53;;;;;;;31.83;9.27;;;;;;;;;;5073356;28;20040;-64
2023/03/14 00:45:19;;;;;;;43.95;13.32;;;;;;;;;;5074099;28;20055;-64
2023/03/14 00:47:45;;;;;;;27.35;4.78;;;;;;;;;;5064252;28;20047;-64
2023/03/14 00:50:12;;;;;;;26.67;4.55;;;;;;;;;;5093776;28;20044;-64
2023/03/14 00:52:38;;;;;;;20.50;4.10;;;;;;;;;;5094211;28;20701;-64
2023/03/14 00:55:04;;;;;;;21.95;4.60;;;;;;;;;;5094444;28;20558;-64
2023/03/14 00:57:30;;;;;;;26.10;4.20;;;;;;;;;;5094257;28;20047;-64
2023/03/14 00:59:56;;;;;;;21.50;4.43;;;;;;;;;;5093707;28;20390;-64
2023/03/14 01:02:22;;;;;;;22.52;4.75;;;;;;;;;;5075768;28;20095;-64
2023/03/14 01:04:49;;;;;;;25.13;4.50;;;;;;;;;;5093836;28;20490;-64
2023/03/14 01:07:15;;;;;;;23.90;4.65;;;;;;;;;;5093172;28;20048;-64
2023/03/14 01:09:41;;;;;;;17.52;4.63;;;;;;;;;;5093855;28;20567;-64
2023/03/14 01:12:07;;;;;;;16.77;4.53;;;;;;;;;;5075913;28;20048;-64
2023/03/14 01:14:33;;;;;;;20.75;5.07;;;;;;;;;;5093457;28;20089;-64
2023/03/14 01:17:00;;;;;;;20.90;4.68;;;;;;;;;;5093821;28;20050;-64
2023/03/14 01:19:29;;;;;;;22.88;5.43;;;;;;;;;;5093772;28;20242;-64
2023/03/14 01:21:55;;;;;;;20.63;5.18;;;;;;;;;;5092735;28;20086;-64
2023/03/14 01:24:21;;;;;;;23.60;4.70;;;;;;;;;;5093563;28;20044;-64
2023/03/14 01:26:47;;;;;;;19.20;4.50;;;;;;;;;;5077799;28;20040;-64
2023/03/14 01:29:13;;;;;;;19.45;4.20;;;;;;;;;;5072598;28;20559;-64
2023/03/14 01:31:39;;;;;;;20.98;4.72;;;;;;;;;;5073332;28;20074;-64
2023/03/14 01:34:05;;;;;;;21.80;4.28;;;;;;;;;;5073092;28;20044;-64
2023/03/14 01:36:31;;;;;;;19.88;4.97;;;;;;;;;;5072525;28;20044;-64
2023/03/14 01:38:58;;;;;;;22.77;4.60;;;;;;;;;;5055246;28;20098;-64
2023/03/14 01:41:25;;;;;;;16.23;4.00;;;;;;;;;;5073281;28;20654;-64
2023/03/14 01:43:51;;;;;;;16.17;4.38;;;;;;;;;;5072557;28;20447;-64
2023/03/14 01:46:22;;;;;;;21.58;3.90;;;;;;;;;;5072501;28;20045;-64
2023/03/14 01:48:53;;;;;;;19.73;3.92;;;;;;;;;;5090080;28;20036;-64
2023/03/14 01:51:24;;;;;;;22.80;4.18;;;;;;;;;;5092741;28;20043;-64
2023/03/14 01:53:51;;;;;;;12.07;3.10;;;;;;;;;;5093302;28;20039;-64
2023/03/14 01:56:18;;;;;;;17.58;3.70;;;;;;;;;;5093150;28;20273;-64
2023/03/14 01:58:46;;;;;;;17.30;3.55;;;;;;;;;;5092219;28;20051;-64
2023/03/14 02:01:12;;;;;;;15.98;3.78;;;;;;;;;;5092713;28;20039;-64
2023/03/14 02:03:46;;;;;;;12.30;3.33;;;;;;;;;;5093109;28;20040;-64
2023/03/14 02:06:12;;;;;;;16.50;3.15;;;;;;;;;;5092447;28;20492;-64
2023/03/14 02:08:40;;;;;;;16.98;3.60;;;;;;;;;;5092837;28;20377;-64
2023/03/14 02:11:08;;;;;;;13.50;3.22;;;;;;;;;;5074547;28;20465;-64
2023/03/14 02:13:34;;;;;;;15.70;3.58;;;;;;;;;;5091713;28;20040;-64
2023/03/14 02:16:00;;;;;;;19.50;4.30;;;;;;;;;;5092715;28;20040;-64
2023/03/14 02:18:26;;;;;;;24.73;4.75;;;;;;;;;;5092315;28;20036;-64
2023/03/14 02:20:52;;;;;;;19.33;4.13;;;;;;;;;;5073890;28;20042;-64
2023/03/14 02:23:25;;;;;;;21.52;4.18;;;;;;;;;;5092145;28;20052;-64
2023/03/14 02:26:01;;;;;;;20.88;4.38;;;;;;;;;;5084510;28;20072;-64
2023/03/14 02:28:27;;;;;;;13.75;3.47;;;;;;;;;;5053614;28;20132;-64
2023/03/14 02:30:53;;;;;;;16.88;4.15;;;;;;;;;;5072200;28;20036;-64
2023/03/14 02:33:20;;;;;;;21.80;4.80;;;;;;;;;;5071902;28;20044;-64
2023/03/14 02:36:04;;;;;;;20.50;4.30;;;;;;;;;;5071235;28;20230;-64
2023/03/14 02:38:48;;;;;;;18.10;4.25;;;;;;;;;;5054053;28;20466;-64
2023/03/14 02:41:15;;;;;;;10.90;3.45;;;;;;;;;;5071488;28;20047;-64
2023/03/14 02:43:41;;;;;;;19.85;4.75;;;;;;;;;;5071998;28;20040;-64
2023/03/14 02:46:09;;;;;;;20.65;5.07;;;;;;;;;;5071636;28;20048;-64
2023/03/14 02:48:38;;;;;;;18.13;4.50;;;;;;;;;;5086598;28;20039;-64
2023/03/14 02:51:05;;;;;;;19.63;4.63;;;;;;;;;;5091765;28;20123;-64
2023/03/14 02:53:32;;;;;;;18.25;5.00;;;;;;;;;;5091707;28;20039;-64
2023/03/14 02:55:58;;;;;;;18.25;4.30;;;;;;;;;;5091672;28;20040;-64
2023/03/14 02:58:24;;;;;;;17.73;4.60;;;;;;;;;;5091183;28;20048;-64
2023/03/14 03:00:50;;;;;;;12.90;3.67;;;;;;;;;;5091388;28;20044;-64
2023/03/14 03:03:17;;;;;;;12.23;3.70;;;;;;;;;;5091884;28;20565;-64
2023/03/14 03:05:43;;;;;;;10.77;3.45;;;;;;;;;;5091245;28;20036;-64
2023/03/14 03:08:10;;;;;;;17.65;3.75;;;;;;;;;;5091637;28;20048;-64
2023/03/14 03:10:36;;;;;;;11.85;3.63;;;;;;;;;;5091715;28;20032;-64
2023/03/14 03:13:02;;;;;;;12.25;3.20;;;;;;;;;;5091004;28;20119;-64
2023/03/14 03:15:30;;;;;;;12.25;3.28;;;;;;;;;;5091615;28;20397;-64
2023/03/14 03:17:56;;;;;;;12.63;3.70;;;;;;;;;;5091474;28;20059;-64
2023/03/14 03:20:22;;;;;;;9.60;2.92;;;;;;;;;;5090953;28;20463;-64
2023/03/14 03:22:49;;;;;;;5.97;2.90;;;;;;;;;;5090981;28;20052;-64
2023/03/14 03:25:15;;;;;;;9.90;3.58;;;;;;;;;;5088493;28;20060;-64
2023/03/14 03:27:42;;;;;;;11.57;3.58;;;;;;;;;;5070449;28;20044;-64
2023/03/14 03:30:09;;;;;;;16.33;4.28;;;;;;;;;;5071299;28;20416;-64
2023/03/14 03:32:35;;;;;;;9.52;3.45;;;;;;;;;;5071029;28;20405;-64
2023/03/14 03:35:02;;;;;;;11.38;3.97;;;;;;;;;;5070502;28;20123;-64
2023/03/14 03:37:30;;;;;;;9.90;3.58;;;;;;;;;;5071255;28;20133;-64
2023/03/14 03:39:56;;;;;;;12.93;4.32;;;;;;;;;;5071113;28;20123;-64
2023/03/14 03:42:22;;;;;;;9.70;3.45;;;;;;;;;;5070515;28;20090;-64
2023/03/14 03:44:49;;;;;;;13.38;4.00;;;;;;;;;;5071129;28;20032;-64
2023/03/14 03:47:15;;;;;;;15.35;5.20;;;;;;;;;;5075296;28;20044;-64
2023/03/14 03:49:41;;;;;;;12.77;4.32;;;;;;;;;;5090426;28;20453;-64
2023/03/14 03:52:08;;;;;;;15.07;4.30;;;;;;;;;;5091203;28;20079;-64
2023/03/14 03:54:34;;;;;;;13.30;4.63;;;;;;;;;;5090901;28;20063;-64
2023/03/14 03:57:00;;;;;;;15.30;4.70;;;;;;;;;;5090166;28;20156;-64
2023/03/14 03:59:26;;;;;;;14.85;4.40;;;;;;;;;;5091184;28;20044;-64
2023/03/14 04:01:52;;;;;;;18.83;5.20;;;;;;;;;;5090597;28;20044;-64
2023/03/14 04:04:18;;;;;;;16.05;4.53;;;;;;;;;;5090091;28;20405;-64
2023/03/14 04:06:45;;;;;;;12.40;3.90;;;;;;;;;;5073006;28;20040;-64
2023/03/14 04:09:11;;;;;;;19.85;4.28;;;;;;;;;;5092939;28;20039;-64
2023/03/14 04:11:37;;;;;;;19.30;4.90;;;;;;;;;;5094203;28;20087;-64
2023/03/14 04:14:04;;;;;;;14.20;4.80;;;;;;;;;;5094833;28;20049;-64
2023/03/14 04:16:31;;;;;;;17.55;4.20;;;;;;;;;;5095014;28;20036;-64
2023/03/14 04:18:57;;;;;;;11.43;3.55;;;;;;;;;;5093964;28;20052;-64
2023/03/14 04:21:23;;;;;;;10.85;3.70;;;;;;;;;;5094362;28;20040;-64
2023/03/14 04:23:49;;;;;;;17.52;3.60;;;;;;;;;;5094865;28;20127;-64
2023/03/14 04:26:16;;;;;;;14.70;3.55;;;;;;;;;;5064782;28;20490;-64
2023/03/14 04:28:42;;;;;;;8.88;2.88;;;;;;;;;;5074135;28;20037;-64
2023/03/14 04:31:13;;;;;;;14.95;3.50;;;;;;;;;;5074627;28;20482;-64
2023/03/14 04:33:39;;;;;;;11.50;3.53;;;;;;;;;;5073948;28;20084;-64
2023/03/14 04:36:06;;;;;;;9.48;3.25;;;;;;;;;;5074504;28;20047;-64
2023/03/14 04:38:32;;;;;;;12.80;4.38;;;;;;;;;;5074224;28;20048;-64
2023/03/14 04:40:59;;;;;;;14.27;4.30;;;;;;;;;;5073523;28;20040;-64
2023/03/14 04:43:25;;;;;;;13.70;4.15;;;;;;;;;;5074270;28;20076;-64
2023/03/14 04:45:52;;;;;;;16.80;4.35;;;;;;;;;;5074030;28;20044;-64
2023/03/14 04:48:18;;;;;;;12.63;3.88;;;;;;;;;;5086362;28;20074;-64
2023/03/14 04:50:47;;;;;;;14.40;4.00;;;;;;;;;;5094405;28;20036;-64
2023/03/14 04:53:13;;;;;;;15.05;3.97;;;;;;;;;;5094257;28;20138;-64
2023/03/14 04:55:39;;;;;;;11.45;3.83;;;;;;;;;;5093254;28;20050;-64
2023/03/14 04:58:05;;;;;;;11.32;4.50;;;;;;;;;;5094175;28;20122;-64
2023/03/14 05:00:31;;;;;;;11.73;4.43;;;;;;;;;;5093998;28;20048;-64
2023/03/14 05:02:57;;;;;;;11.68;4.53;;;;;;;;;;5093504;28;20044;-64
2023/03/14 05:05:23;;;;;;;13.32;4.30;;;;;;;;;;5094019;28;20382;-64
2023/03/14 05:07:49;;;;;;;10.52;4.45;;;;;;;;;;5094139;28;20052;-64
2023/03/14 05:10:15;;;;;;;12.23;4.20;;;;;;;;;;5093362;28;20044;-64
2023/03/14 05:12:41;;;;;;;15.35;4.63;;;;;;;;;;5094052;28;20036;-64
2023/03/14 05:15:08;;;;;;;12.50;4.30;;;;;;;;;;5093742;28;20074;-64
2023/03/14 05:17:34;;;;;;;13.60;4.40;;;;;;;;;;5093387;28;20036;-64
2023/03/14 05:20:00;;;;;;;13.73;4.28;;;;;;;;;;5092271;28;20044;-64
2023/03/14 05:22:26;;;;;;;14.77;4.40;;;;;;;;;;5093314;28;20056;-64
2023/03/14 05:24:56;;;;;;;15.73;4.80;;;;;;;;;;5092886;28;20366;-64
2023/03/14 05:27:22;;;;;;;11.18;3.83;;;;;;;;;;5073799;28;20068;-64
2023/03/14 05:29:48;;;;;;;14.68;5.40;;;;;;;;;;5073912;28;20452;-64
2023/03/14 05:32:14;;;;;;;15.77;5.10;;;;;;;;;;5073055;28;20079;-64
2023/03/14 05:34:41;;;;;;;13.43;4.53;;;;;;;;;;5073892;28;20080;-64
2023/03/14 05:37:07;;;;;;;16.63;4.97;;;;;;;;;;5073840;28;20044;-64
2023/03/14 05:39:33;;;;;;;13.52;4.63;;;;;;;;;;5072826;28;20040;-64
2023/03/14 05:41:59;;;;;;;14.55;5.15;;;;;;;;;;5073493;28;20059;-64
2023/03/14 05:44:25;;;;;;;21.08;5.90;;;;;;;;;;5073211;28;20041;-64
2023/03/14 05:46:51;;;;;;;20.00;5.20;;;;;;;;;;5073555;28;20174;-64
2023/03/14 05:49:17;;;;;;;20.17;6.15;;;;;;;;;;5093667;28;20080;-64
2023/03/14 05:51:43;;;;;;;12.50;5.00;;;;;;;;;;5093563;28;20093;-64
2023/03/14 05:54:09;;;;;;;13.25;5.75;;;;;;;;;;5092774;28;20039;-65
2023/03/14 05:56:35;;;;;;;14.25;5.47;;;;;;;;;;5093563;28;20043;-65
2023/03/14 05:59:03;;;;;;;13.45;5.60;;;;;;;;;;5093363;28;20384;-65
2023/03/14 06:01:29;;;;;;;11.73;5.43;;;;;;;;;;5092512;28;20123;-65
2023/03/14 06:03:55;;;;;;;18.13;5.32;;;;;;;;;;5075264;28;20075;-65
2023/03/14 06:06:21;;;;;;;20.20;5.55;;;;;;;;;;5093333;28;20040;-65
2023/03/14 06:08:48;;;;;;;17.27;5.95;;;;;;;;;;5092377;28;20075;-65
2023/03/14 06:11:14;;;;;;;13.65;5.60;;;;;;;;;;5093034;28;20504;-65
2023/03/14 06:13:40;;;;;;;10.43;5.20;;;;;;;;;;5093398;28;20551;-65
2023/03/14 06:16:07;;;;;;;12.30;5.55;;;;;;;;;;5092546;28;20422;-64
2023/03/14 06:18:33;;;;;;;15.00;5.50;;;;;;;;;;5092950;28;20050;-65
2023/03/14 06:20:59;;;;;;;13.85;5.03;;;;;;;;;;5074525;28;20428;-65
2023/03/14 06:23:25;;;;;;;9.07;4.05;;;;;;;;;;5090003;28;20118;-65
2023/03/14 06:25:51;;;;;;;11.02;3.63;;;;;;;;;;5080366;28;20040;-65
2023/03/14 06:28:17;;;;;;;10.32;3.80;;;;;;;;;;5093042;28;20040;-65
2023/03/14 06:30:43;;;;;;;11.45;4.43;;;;;;;;;;5091932;28;20047;-65
2023/03/14 06:33:09;;;;;;;10.90;4.45;;;;;;;;;;5092816;28;20047;-65
2023/03/14 06:35:35;;;;;;;12.50;4.50;;;;;;;;;;5074570;28;20051;-65
2023/03/14 06:38:01;;;;;;;16.05;4.97;;;;;;;;;;5092287;28;20051;-65
2023/03/14 06:40:27;;;;;;;12.63;4.30;;;;;;;;;;5092482;28;20785;-65
2023/03/14 06:42:53;;;;;;;15.68;5.70;;;;;;;;;;5092567;28;20126;-65
2023/03/14 06:45:19;;;;;;;12.30;4.70;;;;;;;;;;5092375;28;20155;-65
2023/03/14 06:47:45;;;;;;;18.33;4.93;;;;;;;;;;5083799;28;20047;-65
2023/03/14 06:50:11;;;;;;;11.95;4.80;;;;;;;;;;5054210;28;20049;-65
2023/03/14 06:52:41;;;;;;;11.27;5.35;;;;;;;;;;5054309;28;20051;-65
2023/03/14 06:55:07;;;;;;;12.98;4.28;;;;;;;;;;5071493;28;20050;-65
2023/03/14 06:57:33;;;;;;;10.05;4.72;;;;;;;;;;5071767;28;20109;-65
2023/03/14 06:59:59;;;;;;;12.55;3.78;;;;;;;;;;5055397;28;20061;-65
2023/03/14 07:02:25;;;;;;;7.88;3.75;;;;;;;;;;5087934;28;20071;-64
2023/03/14 07:04:51;;;;;;;7.88;4.13;;;;;;;;;;5073397;28;20041;-65
2023/03/14 07:07:17;;;;;;;9.20;3.75;;;;;;;;;;5071489;28;20493;-65
2023/03/14 07:09:43;;;;;;;4.75;2.53;;;;;;;;;;5070770;28;20036;-65
2023/03/14 07:12:09;;;;;;;8.65;2.58;;;;;;;;;;5071475;28;20040;-66
2023/03/14 07:14:35;;;;;;;5.18;2.40;;;;;;;;;;5071478;28;20040;-65
2023/03/14 07:17:01;;;;;;;9.02;2.53;;;;;;;;;;5070693;28;20072;-65
2023/03/14 07:19:27;;;;;;;4.68;2.05;;;;;;;;;;5071247;28;20044;-66
2023/03/14 07:21:54;;;;;;;6.82;1.30;;;;;;;;;;5070844;28;20056;-65
2023/03/14 07:24:20;;;;;;;6.10;1.13;;;;;;;;;;5070521;28;20170;-67
2023/03/14 07:26:46;;;;;;;3.30;0.77;;;;;;;;;;5086689;28;20043;-65
2023/03/14 07:29:12;;;;;;;7.72;1.00;;;;;;;;;;5071263;28;20047;-65
2023/03/14 07:31:38;;;;;;;4.53;0.85;;;;;;;;;;5063615;28;20169;-67
2023/03/14 07:34:04;;;;;;;8.65;1.20;;;;;;;;;;5052174;28;20090;-64
2023/03/14 07:36:30;;;;;;;5.80;1.00;;;;;;;;;;5067722;28;20048;-65
2023/03/14 07:38:56;;;;;;;7.53;0.98;;;;;;;;;;5068783;28;20102;-66
2023/03/14 07:41:22;;;;;;;6.07;0.55;;;;;;;;;;5088700;28;20047;-66
2023/03/14 07:43:49;;;;;;;6.03;0.70;;;;;;;;;;5081493;28;20045;-65
2023/03/14 07:46:15;;;;;;;5.38;0.77;;;;;;;;;;5079436;28;20530;-65
2023/03/14 07:48:41;;;;;;;3.47;0.63;;;;;;;;;;5077417;28;20029;-66
2023/03/14 07:51:07;;;;;;;6.45;0.60;;;;;;;;;;5070120;28;20051;-64
2023/03/14 07:53:33;;;;;;;4.68;0.73;;;;;;;;;;5077288;28;20043;-64
2023/03/14 07:55:59;;;;;;;8.77;1.00;;;;;;;;;;5087963;28;20059;-65
2023/03/14 07:58:25;;;;;;;2.97;0.60;;;;;;;;;;5090192;28;20040;-64
2023/03/14 08:00:52;;;;;;;1.58;0.50;;;;;;;;;;5088081;28;20398;-66
2023/03/14 08:03:18;;;;;;;2.58;0.52;;;;;;;;;;5058961;28;20044;-67
2023/03/14 08:05:44;;;;;;;2.50;0.40;;;;;;;;;;5085600;28;20447;-64
2023/03/14 08:08:10;;;;;;;2.60;0.30;;;;;;;;;;5088003;28;20075;-68
2023/03/14 08:10:37;;;;;;;2.13;0.35;;;;;;;;;;5090148;28;20062;-66
2023/03/14 08:13:03;;;;;;;1.45;0.20;;;;;;;;;;5089971;28;20109;-64
2023/03/14 08:15:29;;;;;;;2.60;0.60;;;;;;;;;;5084848;28;20405;-63
2023/03/14 08:17:55;;;;;;;3.05;0.50;;;;;;;;;;5073289;28;20040;-64
2023/03/14 08:20:23;;;;;;;1.25;0.28;;;;;;;;;;5073731;28;20051;-65
2023/03/14 08:22:49;;;;;;;1.50;0.47;;;;;;;;;;5069166;28;20522;-64
2023/03/14 08:25:16;;;;;;;2.35;0.50;;;;;;;;;;5081088;28;20128;-65
2023/03/14 08:27:42;;;;;;;5.93;0.50;;;;;;;;;;5084972;28;20089;-66
2023/03/14 08:30:09;;;;;;;7.90;0.68;;;;;;;;;;5071491;28;20059;-64
2023/03/14 08:32:35;;;;;;;7.28;0.68;;;;;;;;;;5078070;28;20064;-65
2023/03/14 08:35:02;;;;;;;5.30;0.50;;;;;;;;;;5070224;28;20041;-68
2023/03/14 08:37:28;;;;;;;3.78;0.60;;;;;;;;;;5076976;28;20040;-67
2023/03/14 08:39:54;;;;;;;4.32;1.15;;;;;;;;;;5076564;28;20561;-67
2023/03/14 08:42:20;;;;;;;4.30;0.90;;;;;;;;;;5070423;28;20048;-66
2023/03/14 08:44:46;;;;;;;2.28;0.63;;;;;;;;;;5077458;28;20117;-66
2023/03/14 08:47:12;;;;;;;5.90;1.08;;;;;;;;;;5073892;28;20037;-65
2023/03/14 08:49:41;;;;;;;4.63;0.75;;;;;;;;;;5068026;28;20490;-65
2023/03/14 08:52:08;;;;;;;4.35;1.10;;;;;;;;;;5077220;28;20056;-65
2023/03/14 08:54:34;;;;;;;3.92;0.40;;;;;;;;;;5069909;28;20686;-65
2023/03/14 08:57:00;;;;;;;3.92;0.50;;;;;;;;;;5073545;28;20071;-66
2023/03/14 08:59:26;;;;;;;6.80;1.00;;;;;;;;;;5082155;28;20360;-64
2023/03/14 09:01:52;;;;;;;3.42;0.50;;;;;;;;;;5079376;28;20112;-65
2023/03/14 09:04:18;;;;;;;4.22;0.60;;;;;;;;;;5077510;28;20051;-64
2023/03/14 09:06:44;;;;;;;5.85;1.25;;;;;;;;;;5073171;28;20379;-64
2023/03/14 09:09:10;;;;;;;5.95;0.73;;;;;;;;;;5071177;28;20094;-64
2023/03/14 09:11:36;;;;;;;3.90;0.70;;;;;;;;;;5080921;28;20047;-65
2023/03/14 09:14:02;;;;;;;6.10;1.00;;;;;;;;;;5089625;28;20043;-66
2023/03/14 09:16:28;;;;;;;7.55;1.00;;;;;;;;;;5085742;28;20088;-67
2023/03/14 09:18:54;;;;;;;7.63;1.08;;;;;;;;;;5066505;28;20063;-66
2023/03/14 09:21:21;;;;;;;7.53;1.67;;;;;;;;;;5073121;28;20056;-65
2023/03/14 09:23:47;;;;;;;4.43;0.90;;;;;;;;;;5088254;28;20080;-68
2023/03/14 09:26:13;;;;;;;9.15;1.27;;;;;;;;;;5071531;28;20041;-66
2023/03/14 09:28:39;;;;;;;10.85;1.90;;;;;;;;;;5070281;28;20107;-67
2023/03/14 09:31:07;;;;;;;8.75;1.50;;;;;;;;;;5071155;28;20505;-65
2023/03/14 09:33:33;;;;;;;11.90;1.75;;;;;;;;;;5071235;28;20048;-65
2023/03/14 09:35:59;;;;;;;10.85;1.70;;;;;;;;;;5083366;28;20484;-65
2023/03/14 09:38:26;;;;;;;12.68;1.70;;;;;;;;;;5083953;28;20140;-64
2023/03/14 09:40:53;;;;;;;13.55;2.38;;;;;;;;;;5068818;28;20040;-65
2023/03/14 09:43:22;;;;;;;10.13;1.83;;;;;;;;;;5055817;28;20052;-64
2023/03/14 09:45:49;;;;;;;14.98;1.73;;;;;;;;;;5089591;28;20416;-66
2023/03/14 09:48:17;;;;;;;13.80;1.77;;;;;;;;;;5083495;28;20098;-66
2023/03/14 09:50:45;;;;;;;19.95;2.42;;;;;;;;;;5074597;28;20033;-64
2023/03/14 09:53:15;;;;;;;17.70;2.70;;;;;;;;;;5072210;28;20072;-67
2023/03/14 09:55:42;;;;;;;16.35;2.33;;;;;;;;;;5073127;28;20070;-65
2023/03/14 09:58:17;;;;;;;15.35;2.20;;;;;;;;;;5085665;28;20050;-64
2023/03/14 10:00:43;;;;;;;20.75;3.25;;;;;;;;;;5090134;28;20036;-63
2023/03/14 10:03:09;;;;;;;19.40;2.55;;;;;;;;;;5071287;28;20047;-63
2023/03/14 10:05:35;;;;;;;16.45;2.30;;;;;;;;;;5090742;28;20051;-62
2023/03/14 10:08:01;;;;;;;18.55;2.10;;;;;;;;;;5085844;28;20621;-65
2023/03/14 10:10:27;;;;;;;18.13;2.50;;;;;;;;;;5090805;28;20051;-62
2023/03/14 10:12:56;;;;;;;21.02;4.25;;;;;;;;;;5089567;28;20085;-64
2023/03/14 10:15:25;;;;;;;23.08;2.78;;;;;;;;;;5083588;28;20048;-62
2023/03/14 10:17:52;;;;;;;24.70;2.30;;;;;;;;;;5082025;28;20533;-64
2023/03/14 10:20:32;;;;;;;18.70;2.47;;;;;;;;;;5073846;28;20048;-61
2023/03/14 10:22:59;;;;;;;16.70;2.88;;;;;;;;;;5089471;28;20067;-61
2023/03/14 10:25:29;;;;;;;20.02;2.80;;;;;;;;;;5089271;28;20123;-62
2023/03/14 10:27:55;;;;;;;22.90;2.75;;;;;;;;;;5084813;28;20072;-62
2023/03/14 10:30:43;;;;;;;32.22;3.42;;;;;;;;;;5088273;28;20036;-62
2023/03/14 10:33:20;;;;;;;18.98;2.33;;;;;;;;;;5080851;28;20067;-62
2023/03/14 10:35:52;;;;;;;22.75;3.58;;;;;;;;;;5082949;28;20040;-61
2023/03/14 10:38:18;;;;;;;21.25;3.00;;;;;;;;;;5087934;28;20444;-61
2023/03/14 10:40:49;;;;;;;23.13;3.05;;;;;;;;;;5076407;28;20064;-61
2023/03/14 10:43:21;;;;;;;23.38;3.03;;;;;;;;;;5081008;28;20039;-60
2023/03/14 10:45:52;;;;;;;24.50;2.80;;;;;;;;;;5079796;28;20046;-61
2023/03/14 10:48:20;;;;;;;23.30;2.77;;;;;;;;;;5086372;28;20452;-61
2023/03/14 10:50:50;;;;;;;18.63;2.70;;;;;;;;;;5078340;28;20278;-61
2023/03/14 10:53:18;;;;;;;26.05;3.83;;;;;;;;;;5086330;28;20043;-59
2023/03/14 10:55:45;;;;;;;23.08;2.67;;;;;;;;;;5090053;28;20097;-62
2023/03/14 10:58:19;;;;;;;16.25;2.83;;;;;;;;;;5080914;28;20059;-64
2023/03/14 11:00:48;;;;;;;16.92;2.33;;;;;;;;;;5087304;28;20051;-62
2023/03/14 11:03:15;;;;;;;19.45;3.53;;;;;;;;;;5099398;28;20550;-62
2023/03/14 11:05:47;;;;;;;19.30;3.50;;;;;;;;;;5077695;28;20078;-63
2023/03/14 11:08:13;;;;;;;10.95;2.53;;;;;;;;;;5073264;28;20036;-62
2023/03/14 11:10:43;;;;;;;13.63;1.90;;;;;;;;;;5088815;28;20084;-62
2023/03/14 11:13:15;;;;;;;18.63;2.83;;;;;;;;;;5071241;28;20052;-62
2023/03/14 11:15:44;;;;;;;21.80;2.42;;;;;;;;;;5072919;28;20092;-61
2023/03/14 11:18:16;;;;;;;15.27;2.08;;;;;;;;;;5073456;28;20410;-63
2023/03/14 11:20:51;;;;;;;14.52;1.95;;;;;;;;;;5058130;28;20071;-63
2023/03/14 11:23:22;;;;;;;13.40;1.90;;;;;;;;;;5085124;28;20055;-62
2023/03/14 11:26:18;;;;;;;13.68;2.10;;;;;;;;;;5068881;28;20136;-63
2023/03/14 11:28:57;;;;;;;13.20;1.92;;;;;;;;;;5059661;28;20052;-62
2023/03/14 11:31:23;;;;;;;10.30;1.55;;;;;;;;;;5083288;28;20500;-61
2023/03/14 11:34:02;;;;;;;14.82;2.45;;;;;;;;;;5072892;28;20039;-61
2023/03/14 11:36:34;;;;;;;9.45;1.42;;;;;;;;;;5069840;28;20076;-61
2023/03/14 11:39:00;;;;;;;11.05;2.10;;;;;;;;;;5069523;28;20048;-61
2023/03/14 11:41:30;;;;;;;6.90;1.42;;;;;;;;;;5068580;28;20045;-61
2023/03/14 11:43:57;;;;;;;16.42;2.58;;;;;;;;;;5089700;28;20446;-61
2023/03/14 11:46:26;;;;;;;11.27;2.00;;;;;;;;;;5075415;28;20040;-61
2023/03/14 11:49:04;;;;;;;12.70;1.42;;;;;;;;;;5076877;28;20040;-61
2023/03/14 11:51:36;;;;;;;12.50;2.00;;;;;;;;;;5068932;28;20135;-61
2023/03/14 11:54:09;;;;;;;11.45;1.63;;;;;;;;;;5067831;28;20037;-61
2023/03/14 11:56:42;;;;;;;5.82;1.40;;;;;;;;;;5069812;28;20510;-61
2023/03/14 11:59:31;;;;;;;11.18;1.83;;;;;;;;;;5089752;28;20551;-60
2023/03/14 12:02:06;;;;;;;7.65;1.38;;;;;;;;;;5061444;28;20143;-61
2023/03/14 12:04:37;;;;;;;7.38;1.42;;;;;;;;;;5096566;28;20036;-61
2023/03/14 12:07:08;;;;;;;9.30;1.50;;;;;;;;;;5082693;28;20032;-61
2023/03/14 12:09:34;;;;;;;8.95;1.15;;;;;;;;;;5077280;28;20036;-63
2023/03/14 12:12:02;;;;;;;4.65;1.10;;;;;;;;;;5076459;28;20043;-62
2023/03/14 12:14:32;;;;;;;7.97;1.20;;;;;;;;;;5078460;28;20044;-61
2023/03/14 12:17:04;;;;;;;5.32;1.02;;;;;;;;;;5080724;28;20336;-61
2023/03/14 12:19:32;;;;;;;10.55;1.65;;;;;;;;;;5088654;28;20052;-61
2023/03/14 12:22:01;;;;;;;10.95;1.52;;;;;;;;;;5076239;28;20065;-60
2023/03/14 12:24:29;;;;;;;6.25;1.38;;;;;;;;;;5083774;28;20446;-61
2023/03/14 12:26:57;;;;;;;5.90;1.10;;;;;;;;;;5087257;28;20504;-59
2023/03/14 12:29:23;;;;;;;5.47;1.05;;;;;;;;;;5077832;28;20076;-58
2023/03/14 12:32:06;;;;;;;6.50;1.30;;;;;;;;;;5091819;28;20051;-58
2023/03/14 12:34:33;;;;;;;8.32;1.05;;;;;;;;;;5075886;28;20075;-67
2023/03/14 12:37:19;;;;;;;9.00;1.20;;;;;;;;;;5088141;28;20092;-67
2023/03/14 12:40:09;;;;;;;7.82;1.70;;;;;;;;;;5080693;28;20040;-66
2023/03/14 12:42:41;;;;;;;8.32;1.17;;;;;;;;;;5090305;28;20097;-65
2023/03/14 12:45:28;;;;;;;3.13;0.93;;;;;;;;;;5083506;28;20093;-67
2023/03/14 12:47:57;;;;;;;6.80;1.77;;;;;;;;;;5066173;28;20111;-66
2023/03/14 12:50:46;;;;;;;5.63;0.90;;;;;;;;;;5088041;28;20081;-66
2023/03/14 12:53:27;;;;;;;12.05;1.30;;;;;;;;;;5068922;28;20056;-67
2023/03/14 12:56:01;;;;;;;8.90;1.60;;;;;;;;;;5087875;28;20055;-69
2023/03/14 12:58:29;;;;;;;6.03;1.30;;;;;;;;;;5086380;28;20071;-62
2023/03/14 13:01:01;;;;;;;7.70;1.45;;;;;;;;;;5084560;28;20041;-64
2023/03/14 13:03:36;;;;;;;7.70;1.55;;;;;;;;;;5077409;28;20115;-64
2023/03/14 13:06:04;;;;;;;8.52;1.25;;;;;;;;;;5080687;28;20032;-65
2023/03/14 13:08:38;;;;;;;8.68;1.20;;;;;;;;;;5073864;28;20051;-65
2023/03/14 13:11:16;;;;;;;8.93;1.50;;;;;;;;;;5048311;28;20391;-65
2023/03/14 13:13:46;;;;;;;6.35;1.38;;;;;;;;;;5076202;28;20033;-65
2023/03/14 13:16:15;;;;;;;8.23;1.10;;;;;;;;;;5072276;28;20048;-64
2023/03/14 13:18:45;;;;;;;5.03;1.00;;;;;;;;;;5077133;28;20047;-63
2023/03/14 13:21:14;;;;;;;7.65;1.25;;;;;;;;;;5070352;28;20040;-63
2023/03/14 13:23:40;;;;;;;7.93;1.38;;;;;;;;;;5084665;28;20045;-64
2023/03/14 13:26:10;;;;;;;5.82;1.48;;;;;;;;;;5076447;28;20506;-63
2023/03/14 13:28:36;;;;;;;8.30;1.70;;;;;;;;;;5080204;28;20028;-63
2023/03/14 13:31:03;;;;;;;9.20;1.52;;;;;;;;;;5079515;28;20044;-66
2023/03/14 13:33:29;;;;;;;7.78;1.23;;;;;;;;;;5072492;28;20043;-65
2023/03/14 13:35:55;;;;;;;12.05;2.20;;;;;;;;;;5092220;28;20589;-64
2023/03/14 13:38:26;;;;;;;7.30;1.40;;;;;;;;;;5080713;28;20038;-64
2023/03/14 13:40:58;;;;;;;6.30;1.10;;;;;;;;;;5086118;28;20036;-64
2023/03/14 13:43:27;;;;;;;4.70;0.80;;;;;;;;;;5072326;28;20048;-64
2023/03/14 13:46:01;;;;;;;10.07;1.23;;;;;;;;;;5086445;28;20036;-64
2023/03/14 13:48:28;;;;;;;5.53;1.17;;;;;;;;;;5084779;28;20126;-64
2023/03/14 13:51:00;;;;;;;6.78;1.10;;;;;;;;;;5087915;28;20051;-65
2023/03/14 13:53:27;;;;;;;6.05;1.58;;;;;;;;;;5111284;28;20127;-65
2023/03/14 13:55:53;;;;;;;7.47;1.55;;;;;;;;;;5105261;28;20047;-65
2023/03/14 13:58:21;;;;;;;8.98;1.40;;;;;;;;;;5086964;28;20050;-64
2023/03/14 14:00:57;;;;;;;10.50;1.70;;;;;;;;;;5087250;28;20043;-65
2023/03/14 14:03:24;;;;;;;6.75;1.60;;;;;;;;;;5091506;28;20075;-65
2023/03/14 14:05:50;;;;;;;6.47;1.05;;;;;;;;;;5083835;28;20053;-65
2023/03/14 14:08:16;;;;;;;6.00;1.20;;;;;;;;;;5081300;28;20402;-64
2023/03/14 14:10:42;;;;;;;7.35;1.20;;;;;;;;;;5089228;28;20035;-66
2023/03/14 14:13:11;;;;;;;10.10;1.50;;;;;;;;;;5081242;28;20043;-66
2023/03/14 14:15:40;;;;;;;10.55;1.30;;;;;;;;;;5090220;28;20044;-65
2023/03/14 14:18:08;;;;;;;4.50;1.10;;;;;;;;;;5081171;28;20036;-66
2023/03/14 14:20:34;;;;;;;7.68;1.30;;;;;;;;;;5081984;28;20151;-64
2023/03/14 14:23:04;;;;;;;4.93;1.40;;;;;;;;;;5090815;28;20565;-63
2023/03/14 14:25:31;;;;;;;7.00;1.48;;;;;;;;;;5089023;28;20051;-66
2023/03/14 14:27:57;;;;;;;4.68;1.17;;;;;;;;;;5091187;28;20125;-66
2023/03/14 14:30:29;;;;;;;9.95;1.30;;;;;;;;;;5069672;28;20867;-63
2023/03/14 14:33:10;;;;;;;7.15;1.45;;;;;;;;;;5090417;28;20036;-63
2023/03/14 14:35:36;;;;;;;8.38;1.30;;;;;;;;;;5097170;28;20036;-65
2023/03/14 14:38:03;;;;;;;7.22;1.60;;;;;;;;;;5068800;28;20039;-65